Time;durP1;ratioP1;P1;durP2;ratioP2;P2;SDS_P1;SDS_P2;PMS_P1;PMS_P2;Temp;Humidity;BMP_temperature;BMP_pressure;BME280_temperature;BME280_humidity;BME280_pressure;Samples;Min_cycle;Max_cycle;Signal;HPM_P1;HPM_P2
2021/04/05 00:01:42;;;;;;;2.78;1.25;;;25.20;38.00;;;;;;5083138;28;20047;-67
2021/04/05 00:04:09;;;;;;;2.50;1.30;;;25.20;38.10;;;;;;5062711;28;20051;-67
2021/04/05 00:06:34;;;;;;;2.35;1.40;;;25.20;38.10;;;;;;5083655;28;20024;-66
2021/04/05 00:09:00;;;;;;;2.20;1.20;;;25.20;38.00;;;;;;5085113;28;20489;-64
2021/04/05 00:11:26;;;;;;;2.58;1.40;;;25.30;38.00;;;;;;5069714;28;20538;-67
2021/04/05 00:13:51;;;;;;;3.15;1.33;;;25.20;38.00;;;;;;5069847;28;20024;-65
2021/04/05 00:16:18;;;;;;;2.55;1.25;;;25.20;38.00;;;;;;5085601;28;20024;-64
2021/04/05 00:18:45;;;;;;;2.53;1.40;;;25.20;38.00;;;;;;5084250;28;20063;-64
2021/04/05 00:21:19;;;;;;;1.70;1.13;;;25.20;37.90;;;;;;5062522;28;20047;-67
2021/04/05 00:23:45;;;;;;;2.30;1.30;;;25.30;37.90;;;;;;5067163;28;20082;-67
2021/04/05 00:26:11;;;;;;;2.05;1.20;;;25.20;37.70;;;;;;5086324;28;20036;-66
2021/04/05 00:28:37;;;;;;;2.50;1.30;;;25.20;37.80;;;;;;5087663;28;20024;-65
2021/04/05 00:31:03;;;;;;;2.83;1.15;;;25.30;37.80;;;;;;5087212;28;20068;-65
2021/04/05 00:33:29;;;;;;;2.40;1.17;;;25.20;37.80;;;;;;5074783;28;20890;-68
2021/04/05 00:35:54;;;;;;;2.30;1.20;;;25.20;37.80;;;;;;5077783;28;20028;-69
2021/04/05 00:38:21;;;;;;;2.10;1.20;;;25.20;37.70;;;;;;5080060;28;20077;-70
2021/04/05 00:41:05;;;;;;;2.38;1.20;;;25.30;37.80;;;;;;5068419;28;20606;-64
2021/04/05 00:43:31;;;;;;;2.03;1.17;;;25.30;37.80;;;;;;5065696;28;20116;-66
2021/04/05 00:45:56;;;;;;;2.47;1.25;;;25.30;37.80;;;;;;5075362;28;20154;-67
2021/04/05 00:48:25;;;;;;;3.00;1.20;;;25.30;37.80;;;;;;5077371;28;20027;-67
2021/04/05 00:50:59;;;;;;;2.43;1.10;;;25.30;37.70;;;;;;5076745;28;20054;-65
2021/04/05 00:53:37;;;;;;;1.73;1.10;;;25.20;37.70;;;;;;5077530;28;20024;-67
2021/04/05 00:56:04;;;;;;;2.35;1.10;;;25.30;37.80;;;;;;5063834;28;20075;-67
2021/04/05 00:58:30;;;;;;;2.00;1.10;;;25.30;37.90;;;;;;5071285;28;20024;-66
2021/04/05 01:01:02;;;;;;;1.67;1.00;;;25.20;37.80;;;;;;5084367;28;20383;-64
2021/04/05 01:03:29;;;;;;;2.33;1.30;;;25.20;37.70;;;;;;5067935;28;20032;-69
2021/04/05 01:06:07;;;;;;;1.73;1.10;;;25.20;37.90;;;;;;5069013;28;20068;-65
2021/04/05 01:08:32;;;;;;;1.52;1.02;;;25.20;37.60;;;;;;5079272;28;20138;-68
2021/04/05 01:10:58;;;;;;;1.65;1.10;;;25.30;37.70;;;;;;5065885;28;20032;-67
2021/04/05 01:13:24;;;;;;;2.08;1.10;;;25.20;37.70;;;;;;5070632;28;20032;-67
2021/04/05 01:15:49;;;;;;;2.60;1.20;;;25.20;37.70;;;;;;5085141;28;20133;-68
2021/04/05 01:18:17;;;;;;;1.80;1.20;;;25.20;37.70;;;;;;5057591;28;20035;-66
2021/04/05 01:20:44;;;;;;;2.10;1.15;;;25.20;37.70;;;;;;5052071;28;20039;-67
2021/04/05 01:23:11;;;;;;;2.17;1.15;;;25.20;37.70;;;;;;5061497;28;20123;-65
2021/04/05 01:25:37;;;;;;;2.15;1.30;;;25.20;37.60;;;;;;5084719;28;20043;-66
2021/04/05 01:28:04;;;;;;;2.25;1.20;;;25.20;37.60;;;;;;5086924;28;20136;-65
2021/04/05 01:30:45;;;;;;;1.85;1.23;;;25.20;37.60;;;;;;5086675;28;20627;-66
2021/04/05 01:33:20;;;;;;;1.45;0.93;;;25.20;37.60;;;;;;5079663;28;20441;-69
2021/04/05 01:35:55;;;;;;;1.60;1.00;;;25.20;37.70;;;;;;5067133;28;20024;-68
2021/04/05 01:38:30;;;;;;;1.50;0.95;;;25.20;37.70;;;;;;5057147;28;20035;-69
2021/04/05 01:40:59;;;;;;;2.25;1.13;;;25.10;37.60;;;;;;5086660;28;20490;-68
2021/04/05 01:43:25;;;;;;;2.25;1.02;;;25.10;37.70;;;;;;5087018;28;20111;-69
2021/04/05 01:45:55;;;;;;;1.55;1.00;;;25.10;37.70;;;;;;5087255;28;20744;-68
2021/04/05 01:48:26;;;;;;;2.63;1.30;;;25.10;37.80;;;;;;5086650;28;20062;-69
2021/04/05 01:50:59;;;;;;;1.80;1.10;;;25.00;37.70;;;;;;5080980;28;20028;-68
2021/04/05 01:53:25;;;;;;;1.67;1.10;;;25.00;37.80;;;;;;5062553;28;20023;-69
2021/04/05 01:55:51;;;;;;;2.13;1.10;;;25.00;37.80;;;;;;5081717;28;20024;-68
2021/04/05 01:58:19;;;;;;;1.83;1.00;;;24.90;37.80;;;;;;5076394;28;20078;-68
2021/04/05 02:00:45;;;;;;;1.17;0.88;;;24.90;37.80;;;;;;5076756;27;20482;-69
2021/04/05 02:03:11;;;;;;;1.98;0.90;;;24.90;37.90;;;;;;5083145;28;20050;-69
2021/04/05 02:05:43;;;;;;;1.42;0.90;;;24.90;37.90;;;;;;5085459;28;20025;-69
2021/04/05 02:08:09;;;;;;;2.53;1.17;;;24.80;37.80;;;;;;5069577;28;20098;-68
2021/04/05 02:10:35;;;;;;;1.80;1.10;;;24.80;37.80;;;;;;5069249;28;20060;-69
2021/04/05 02:13:01;;;;;;;2.20;1.00;;;24.80;37.80;;;;;;5076635;28;20024;-69
2021/04/05 02:15:27;;;;;;;1.35;1.00;;;24.80;37.90;;;;;;5084525;28;20012;-69
2021/04/05 02:17:53;;;;;;;1.55;1.00;;;24.80;37.90;;;;;;5058282;28;20062;-69
2021/04/05 02:20:20;;;;;;;1.73;1.00;;;24.80;37.90;;;;;;5083216;28;20121;-68
2021/04/05 02:22:48;;;;;;;2.15;1.20;;;24.70;37.90;;;;;;5081574;28;20027;-69
2021/04/05 02:25:16;;;;;;;2.42;1.02;;;24.70;37.90;;;;;;5073496;28;20028;-71
2021/04/05 02:27:44;;;;;;;1.52;1.02;;;24.70;37.90;;;;;;5055244;28;20175;-69
2021/04/05 02:30:21;;;;;;;1.70;1.05;;;24.60;37.80;;;;;;5087858;28;20827;-68
2021/04/05 02:32:53;;;;;;;2.30;1.02;;;24.70;37.90;;;;;;5053482;28;20025;-68
2021/04/05 02:35:18;;;;;;;1.25;0.90;;;24.60;37.90;;;;;;5070449;28;20336;-68
2021/04/05 02:37:45;;;;;;;1.90;1.17;;;24.60;37.90;;;;;;5084581;28;20079;-69
2021/04/05 02:40:12;;;;;;;1.52;1.10;;;24.60;38.00;;;;;;5066005;28;20036;-69
2021/04/05 02:42:39;;;;;;;1.42;1.10;;;24.60;37.90;;;;;;5076527;28;20099;-69
2021/04/05 02:45:06;;;;;;;1.58;0.98;;;24.60;37.90;;;;;;5067020;28;20036;-69
2021/04/05 02:47:34;;;;;;;1.40;0.90;;;24.50;37.90;;;;;;5073398;28;20086;-69
2021/04/05 02:50:00;;;;;;;1.75;1.08;;;24.50;37.90;;;;;;5060318;28;20051;-69
2021/04/05 02:52:26;;;;;;;1.63;1.00;;;24.50;37.90;;;;;;5077823;28;20020;-68
2021/04/05 02:54:52;;;;;;;1.33;1.00;;;24.50;37.90;;;;;;5077781;28;20102;-69
2021/04/05 02:57:18;;;;;;;1.88;1.00;;;24.40;37.90;;;;;;5054142;28;20094;-69
2021/04/05 02:59:44;;;;;;;1.55;0.90;;;24.40;37.90;;;;;;5085727;28;20024;-68
2021/04/05 03:02:10;;;;;;;1.73;1.00;;;24.40;37.90;;;;;;5081355;28;20110;-69
2021/04/05 03:04:36;;;;;;;1.65;1.00;;;24.40;37.90;;;;;;5071321;28;20025;-69
2021/04/05 03:07:02;;;;;;;1.50;0.90;;;24.40;37.90;;;;;;5072452;28;20036;-68
2021/04/05 03:09:27;;;;;;;1.75;1.10;;;24.40;37.90;;;;;;5058870;28;20086;-69
2021/04/05 03:11:57;;;;;;;1.75;1.10;;;24.40;38.00;;;;;;5085249;28;20134;-69
2021/04/05 03:14:24;;;;;;;1.60;1.00;;;24.40;38.00;;;;;;5081980;28;20024;-69
2021/04/05 03:16:51;;;;;;;2.38;1.05;;;24.30;37.90;;;;;;5074559;28;20056;-69
2021/04/05 03:19:20;;;;;;;1.50;1.00;;;24.30;37.90;;;;;;5061843;28;20043;-68
2021/04/05 03:21:46;;;;;;;1.58;1.00;;;24.30;38.00;;;;;;5077241;28;20040;-68
2021/04/05 03:24:12;;;;;;;1.50;1.00;;;24.30;38.00;;;;;;5076830;28;20541;-69
2021/04/05 03:26:38;;;;;;;1.52;0.85;;;24.30;38.00;;;;;;5071345;28;20119;-69
2021/04/05 03:29:07;;;;;;;1.75;1.10;;;24.30;38.00;;;;;;5082738;28;20107;-68
2021/04/05 03:31:35;;;;;;;1.50;0.93;;;24.30;38.00;;;;;;5083889;28;20028;-69
2021/04/05 03:34:10;;;;;;;1.30;1.00;;;24.20;37.90;;;;;;5085012;28;20038;-68
2021/04/05 03:36:42;;;;;;;2.20;1.10;;;24.20;37.90;;;;;;5068268;28;20029;-69
2021/04/05 03:39:10;;;;;;;1.73;1.00;;;24.20;37.90;;;;;;5065673;28;20032;-68
2021/04/05 03:41:51;;;;;;;2.58;1.00;;;24.20;37.90;;;;;;5072030;28;20028;-69
2021/04/05 03:44:41;;;;;;;2.13;1.10;;;24.20;37.90;;;;;;5063865;28;20047;-68
2021/04/05 03:47:37;;;;;;;1.45;0.98;;;24.20;37.90;;;;;;5061026;28;20024;-69
2021/04/05 03:50:17;;;;;;;2.92;1.10;;;24.10;37.90;;;;;;5076209;28;20039;-68
2021/04/05 03:52:49;;;;;;;1.38;0.88;;;24.10;37.90;;;;;;5084283;28;20106;-69
2021/04/05 03:55:18;;;;;;;1.38;0.90;;;24.10;37.90;;;;;;5083578;28;20032;-68
2021/04/05 03:57:50;;;;;;;1.35;0.90;;;24.10;37.90;;;;;;5078277;28;20781;-69
2021/04/05 04:00:19;;;;;;;2.20;0.93;;;24.10;37.90;;;;;;5070717;28;20048;-69
2021/04/05 04:02:52;;;;;;;1.58;0.90;;;24.10;38.00;;;;;;5078168;28;20059;-69
2021/04/05 04:10:51;;;;;;;2.40;1.00;;;24.10;38.00;;;;;;5062139;28;20490;-68
2021/04/05 04:13:18;;;;;;;1.35;0.98;;;24.10;38.00;;;;;;5060839;28;20036;-69
2021/04/05 04:15:49;;;;;;;1.48;0.95;;;24.10;38.00;;;;;;5065236;28;20109;-69
2021/04/05 04:18:17;;;;;;;1.73;1.00;;;24.10;38.00;;;;;;5082699;28;20028;-68
2021/04/05 04:20:44;;;;;;;2.05;1.10;;;24.00;37.90;;;;;;5085171;28;20047;-69
2021/04/05 04:23:11;;;;;;;1.80;1.05;;;24.00;37.90;;;;;;5087314;28;20071;-69
2021/04/05 04:25:38;;;;;;;1.20;0.90;;;24.00;38.00;;;;;;5065572;28;20050;-69
2021/04/05 04:28:04;;;;;;;1.65;1.00;;;24.00;37.90;;;;;;5073197;28;20525;-69
2021/04/05 04:30:33;;;;;;;1.27;0.95;;;24.00;38.00;;;;;;5049627;28;20063;-69
2021/04/05 04:33:04;;;;;;;1.10;0.88;;;24.00;38.00;;;;;;5084409;28;20032;-68
2021/04/05 04:35:31;;;;;;;1.90;1.08;;;23.90;37.90;;;;;;5088810;28;20028;-69
2021/04/05 04:37:58;;;;;;;1.83;1.02;;;23.90;37.90;;;;;;5085523;28;20089;-69
2021/04/05 04:40:25;;;;;;;1.10;0.80;;;23.90;37.90;;;;;;5087139;28;20024;-68
2021/04/05 04:42:51;;;;;;;1.80;1.10;;;23.90;37.90;;;;;;5085947;28;20031;-69
2021/04/05 04:45:18;;;;;;;1.35;0.90;;;23.90;37.90;;;;;;5085960;28;20043;-69
2021/04/05 04:47:44;;;;;;;1.60;0.90;;;23.90;37.90;;;;;;5075308;28;20047;-69
2021/04/05 04:50:13;;;;;;;1.15;0.88;;;23.90;37.90;;;;;;5061543;28;20387;-69
2021/04/05 04:52:39;;;;;;;1.33;0.90;;;23.90;37.90;;;;;;5056593;28;20024;-68
2021/04/05 04:55:05;;;;;;;1.55;0.90;;;23.90;37.90;;;;;;5067228;28;20540;-69
2021/04/05 04:57:31;;;;;;;1.15;0.90;;;23.90;38.30;;;;;;5083151;28;20024;-69
2021/04/05 04:59:58;;;;;;;1.50;1.00;;;23.90;38.00;;;;;;5080160;28;20032;-69
2021/04/05 05:02:24;;;;;;;1.23;0.88;;;23.90;37.90;;;;;;5078807;28;20044;-69
2021/04/05 05:04:53;;;;;;;1.50;0.88;;;23.90;37.90;;;;;;5088432;28;20035;-69
2021/04/05 05:07:20;;;;;;;1.20;0.85;;;23.90;37.90;;;;;;5077981;28;20021;-69
2021/04/05 05:09:46;;;;;;;1.55;0.90;;;23.90;37.90;;;;;;5066727;28;20025;-69
2021/04/05 05:12:12;;;;;;;1.27;0.85;;;23.90;37.90;;;;;;5074258;28;20066;-68
2021/04/05 05:14:39;;;;;;;1.83;0.98;;;23.80;37.90;;;;;;5075540;28;20122;-69
2021/04/05 05:17:07;;;;;;;1.17;0.90;;;23.80;37.80;;;;;;5067988;28;20081;-69
2021/04/05 05:19:36;;;;;;;0.95;0.80;;;23.80;37.90;;;;;;5080251;28;20467;-68
2021/04/05 05:22:02;;;;;;;;;;;23.80;37.90;;;;;;5062996;28;20142;-69
2021/04/05 05:24:31;;;;;;;1.35;0.90;;;23.80;37.80;;;;;;5061340;28;19916;-68
2021/04/05 05:26:57;;;;;;;1.48;1.05;;;23.80;37.90;;;;;;5044188;28;20498;-68
2021/04/05 05:29:23;;;;;;;1.20;0.80;;;23.80;37.80;;;;;;5072500;28;20119;-69
2021/04/05 05:31:50;;;;;;;1.40;0.90;;;23.80;37.90;;;;;;5071481;28;20036;-68
2021/04/05 05:34:20;;;;;;;1.23;0.80;;;23.80;37.90;;;;;;5087345;28;20024;-69
2021/04/05 05:36:47;;;;;;;1.38;0.98;;;23.80;37.90;;;;;;5083141;28;20769;-69
2021/04/05 05:39:14;;;;;;;1.50;0.90;;;23.80;37.90;;;;;;5085118;28;20028;-69
2021/04/05 05:42:10;;;;;;;1.10;0.90;;;23.70;37.80;;;;;;5067013;28;20132;-68
2021/04/05 05:44:49;;;;;;;1.10;0.80;;;23.70;38.30;;;;;;5062422;28;20095;-68
2021/04/05 05:47:36;;;;;;;1.30;1.00;;;23.70;37.80;;;;;;5063723;28;20044;-69
2021/04/05 05:50:32;;;;;;;1.40;1.00;;;23.70;37.80;;;;;;5080155;28;20596;-69
2021/04/05 05:53:28;;;;;;;1.63;0.80;;;23.70;37.80;;;;;;5042378;28;20059;-69
2021/04/05 05:56:04;;;;;;;1.83;1.00;;;23.70;37.80;;;;;;5066713;28;20165;-69
2021/04/05 05:58:44;;;;;;;1.65;0.90;;;23.70;38.00;;;;;;5077833;28;20058;-69
2021/04/05 06:01:19;;;;;;;1.58;0.90;;;23.70;37.80;;;;;;5085351;28;20039;-68
2021/04/05 06:04:09;;;;;;;1.58;1.00;;;23.70;37.80;;;;;;5081289;28;20739;-69
2021/04/05 06:06:59;;;;;;;1.40;0.88;;;23.70;37.80;;;;;;5064063;28;20124;-68
2021/04/05 06:09:43;;;;;;;;;;;23.70;37.90;;;;;;5080380;28;20024;-69
2021/04/05 06:12:16;;;;;;;1.20;0.90;;;23.70;37.90;;;;;;5072290;28;19918;-68
2021/04/05 06:14:54;;;;;;;0.90;0.80;;;23.70;37.90;;;;;;5081283;28;20889;-68
2021/04/05 06:17:50;;;;;;;1.10;0.80;;;23.70;38.00;;;;;;5083524;28;20024;-68
2021/04/05 06:20:25;;;;;;;2.40;0.98;;;23.60;37.90;;;;;;5084046;28;20077;-68
2021/04/05 06:22:59;;;;;;;0.88;0.77;;;23.60;38.00;;;;;;5084028;28;20039;-68
2021/04/05 06:25:28;;;;;;;1.25;0.80;;;23.60;38.00;;;;;;5082590;28;20024;-68
2021/04/05 06:28:38;;;;;;;0.70;0.70;;;23.60;38.10;;;;;;5074036;28;20028;-69
2021/04/05 06:31:22;;;;;;;1.55;1.00;;;23.60;38.00;;;;;;5046272;28;20028;-68
2021/04/05 06:33:53;;;;;;;1.17;0.75;;;23.60;38.00;;;;;;5067336;28;20043;-68
2021/04/05 06:36:59;;;;;;;1.35;0.82;;;23.60;38.00;;;;;;5082525;28;20024;-68
2021/04/05 06:39:27;;;;;;;1.17;0.80;;;23.60;38.00;;;;;;5085080;28;20043;-68
2021/04/05 06:42:03;;;;;;;1.13;0.88;;;23.60;38.00;;;;;;5082500;28;20092;-68
2021/04/05 06:45:03;;;;;;;1.33;0.82;;;23.60;38.00;;;;;;5065224;28;20039;-68
2021/04/05 06:47:44;;;;;;;1.25;0.90;;;23.60;38.00;;;;;;5071620;28;20051;-68
2021/04/05 06:50:33;;;;;;;1.50;0.90;;;23.60;38.10;;;;;;5085104;28;20031;-68
2021/04/05 06:53:28;;;;;;;1.33;1.00;;;23.60;38.10;;;;;;5084068;28;20371;-69
2021/04/05 06:55:57;;;;;;;1.35;0.90;;;23.60;38.20;;;;;;5081755;28;20096;-68
2021/04/05 06:58:25;;;;;;;1.60;1.00;;;23.60;38.20;;;;;;5064449;28;20059;-68
2021/04/05 07:01:13;;;;;;;1.70;1.05;;;23.60;38.20;;;;;;5071624;28;20052;-68
2021/04/05 07:03:57;;;;;;;1.77;1.20;;;23.60;38.20;;;;;;5046145;28;20106;-68
2021/04/05 07:06:56;;;;;;;1.85;1.10;;;23.60;38.40;;;;;;5055497;28;20394;-68
2021/04/05 07:09:40;;;;;;;;;;;23.60;38.60;;;;;;5052432;28;20688;-68
2021/04/05 07:12:36;;;;;;;1.80;1.10;;;23.60;38.30;;;;;;5079951;28;19922;-68
2021/04/05 07:15:29;;;;;;;1.95;1.15;;;23.50;38.30;;;;;;5084650;28;20136;-69
2021/04/05 07:18:11;;;;;;;2.15;1.30;;;23.50;38.30;;;;;;5074303;28;20043;-68
2021/04/05 07:21:02;;;;;;;1.83;1.20;;;23.60;38.30;;;;;;5068140;28;20027;-68
2021/04/05 07:23:51;;;;;;;1.95;1.20;;;23.50;38.60;;;;;;5071042;28;20103;-69
2021/04/05 07:26:23;;;;;;;2.78;1.13;;;23.60;38.40;;;;;;5063627;28;20158;-68
2021/04/05 07:29:07;;;;;;;2.00;1.40;;;23.50;38.50;;;;;;5065100;28;20067;-68
2021/04/05 07:32:03;;;;;;;1.98;1.23;;;23.60;38.40;;;;;;5071013;28;20036;-69
2021/04/05 07:34:38;;;;;;;1.70;1.30;;;23.50;38.40;;;;;;5088870;28;20405;-68
2021/04/05 07:37:03;;;;;;;1.60;1.10;;;23.50;38.40;;;;;;5072187;28;20371;-68
2021/04/05 07:39:37;;;;;;;2.78;1.25;;;23.50;38.40;;;;;;5080604;28;20036;-69
2021/04/05 07:42:20;;;;;;;1.60;1.10;;;23.50;38.40;;;;;;5081864;28;20043;-68
2021/04/05 07:44:56;;;;;;;1.80;1.20;;;23.50;38.40;;;;;;5088841;28;20047;-68
2021/04/05 07:47:51;;;;;;;2.15;1.38;;;23.50;38.40;;;;;;5078777;28;20032;-68
2021/04/05 07:50:36;;;;;;;1.73;1.20;;;23.50;38.40;;;;;;5087446;28;20118;-67
2021/04/05 07:53:19;;;;;;;2.15;1.20;;;23.60;38.50;;;;;;5065448;28;20024;-68
2021/04/05 07:55:47;;;;;;;1.42;1.08;;;23.50;38.40;;;;;;5082548;28;20051;-68
2021/04/05 07:58:21;;;;;;;1.80;1.20;;;23.50;38.40;;;;;;5071526;28;20025;-68
2021/04/05 08:01:01;;;;;;;1.65;1.10;;;23.50;38.40;;;;;;5085198;28;20044;-68
2021/04/05 08:03:36;;;;;;;1.48;1.10;;;23.50;38.50;;;;;;5056994;28;20107;-68
2021/04/05 08:06:05;;;;;;;1.90;1.30;;;23.50;38.50;;;;;;5076610;28;20375;-68
2021/04/05 08:08:54;;;;;;;2.15;1.20;;;23.50;38.40;;;;;;5068891;28;20035;-68
2021/04/05 08:11:38;;;;;;;1.85;1.17;;;23.50;38.50;;;;;;5080542;28;20455;-68
2021/04/05 08:14:27;;;;;;;2.20;1.30;;;23.50;38.50;;;;;;5063974;28;20388;-67
2021/04/05 08:16:57;;;;;;;1.83;1.10;;;23.50;38.50;;;;;;5085088;28;20028;-68
2021/04/05 08:19:38;;;;;;;1.58;1.13;;;23.50;38.50;;;;;;5065387;28;20040;-68
2021/04/05 08:22:09;;;;;;;1.77;1.20;;;23.50;38.50;;;;;;5082526;28;20036;-68
2021/04/05 08:24:47;;;;;;;2.97;1.20;;;23.50;38.50;;;;;;5072869;28;20048;-68
2021/04/05 08:27:20;;;;;;;1.88;1.20;;;23.50;38.50;;;;;;5079287;28;20037;-69
2021/04/05 08:30:07;;;;;;;1.75;1.20;;;23.50;38.50;;;;;;5082811;28;20504;-68
2021/04/05 08:32:56;;;;;;;2.25;1.33;;;23.50;38.50;;;;;;5086123;28;20032;-68
2021/04/05 08:35:48;;;;;;;2.05;1.30;;;23.50;38.50;;;;;;5087326;28;20354;-68
2021/04/05 08:38:36;;;;;;;1.85;1.10;;;23.50;38.50;;;;;;5081471;28;20130;-69
2021/04/05 08:41:27;;;;;;;1.90;1.30;;;23.50;38.50;;;;;;5074086;28;20031;-68
2021/04/05 08:44:19;;;;;;;1.85;1.13;;;23.50;38.50;;;;;;5040213;28;20043;-68
2021/04/05 08:46:48;;;;;;;1.55;1.10;;;23.50;38.50;;;;;;5065313;28;20037;-68
2021/04/05 08:49:20;;;;;;;1.67;1.20;;;23.50;38.40;;;;;;5078984;28;20613;-69
2021/04/05 08:51:57;;;;;;;1.98;1.38;;;23.50;38.40;;;;;;5084972;28;20032;-68
2021/04/05 08:54:28;;;;;;;1.65;1.10;;;23.50;38.50;;;;;;5081777;28;20060;-69
2021/04/05 08:57:03;;;;;;;1.75;1.15;;;23.50;38.50;;;;;;5078642;28;20107;-69
2021/04/05 08:59:41;;;;;;;2.47;1.10;;;23.50;38.40;;;;;;5080551;28;20046;-68
2021/04/05 09:02:21;;;;;;;2.17;1.20;;;23.50;38.40;;;;;;5060784;28;20121;-68
2021/04/05 09:04:48;;;;;;;1.75;1.20;;;23.50;38.50;;;;;;5078695;28;20035;-69
2021/04/05 09:07:25;;;;;;;1.65;1.00;;;23.50;38.50;;;;;;5071667;28;20086;-68
2021/04/05 09:09:56;;;;;;;1.67;1.00;;;23.50;38.50;;;;;;5052721;28;20127;-68
2021/04/05 09:12:22;;;;;;;1.63;1.10;;;23.50;38.50;;;;;;5089023;28;20024;-68
2021/04/05 09:15:32;;;;;;;3.30;1.10;;;23.50;38.50;;;;;;5070645;28;20560;-68
2021/04/05 09:18:12;;;;;;;;;;;23.50;38.50;;;;;;5075869;28;20916;-68
2021/04/05 09:21:14;;;;;;;1.80;1.10;;;23.50;38.50;;;;;;5084063;28;19959;-68
2021/04/05 09:24:08;;;;;;;1.90;1.10;;;23.50;38.50;;;;;;5064810;28;20027;-68
2021/04/05 09:27:03;;;;;;;2.13;1.10;;;23.60;38.60;;;;;;5061789;28;20021;-69
2021/04/05 09:29:41;;;;;;;1.40;1.00;;;23.50;38.50;;;;;;5044901;28;20427;-68
2021/04/05 09:32:46;;;;;;;2.05;1.10;;;23.50;38.50;;;;;;5080189;28;20047;-68
2021/04/05 09:35:24;;;;;;;1.63;1.05;;;23.60;38.60;;;;;;5077069;28;20036;-67
2021/04/05 09:38:27;;;;;;;2.28;1.10;;;23.60;38.60;;;;;;5084489;28;20027;-68
2021/04/05 09:40:52;;;;;;;1.60;0.95;;;23.50;38.60;;;;;;5088098;28;20082;-68
2021/04/05 09:43:42;;;;;;;1.90;1.10;;;23.60;38.60;;;;;;5081620;28;20064;-68
2021/04/05 09:46:35;;;;;;;2.03;1.10;;;23.60;38.60;;;;;;5070173;28;20043;-68
2021/04/05 09:49:28;;;;;;;3.40;1.20;;;23.60;38.70;;;;;;5083339;28;20744;-68
2021/04/05 09:51:57;;;;;;;1.85;1.10;;;23.60;38.60;;;;;;5081269;28;20446;-68
2021/04/05 09:54:47;;;;;;;1.63;1.08;;;23.60;38.60;;;;;;5074926;28;20103;-69
2021/04/05 09:57:39;;;;;;;2.22;1.20;;;23.60;38.70;;;;;;5078478;28;20055;-68
2021/04/05 10:00:11;;;;;;;1.77;1.10;;;23.60;38.70;;;;;;5083595;28;20487;-68
2021/04/05 10:02:54;;;;;;;1.90;1.10;;;23.60;38.70;;;;;;5084866;28;20573;-69
2021/04/05 10:05:22;;;;;;;1.60;1.00;;;23.60;38.70;;;;;;5086004;28;20035;-68
2021/04/05 10:07:50;;;;;;;2.00;1.02;;;23.60;38.60;;;;;;5075640;28;20020;-68
2021/04/05 10:10:17;;;;;;;1.42;1.10;;;23.60;38.70;;;;;;5083614;28;20028;-68
2021/04/05 10:12:46;;;;;;;2.63;1.10;;;23.60;38.70;;;;;;5076704;28;20036;-68
2021/04/05 10:15:16;;;;;;;1.73;1.20;;;23.60;39.30;;;;;;5076617;28;20020;-68
2021/04/05 10:17:52;;;;;;;2.72;1.10;;;23.60;38.90;;;;;;5079910;28;20039;-67
2021/04/05 10:20:22;;;;;;;1.42;1.02;;;23.60;39.00;;;;;;5067654;28;20036;-68
2021/04/05 10:22:49;;;;;;;1.95;1.10;;;23.60;39.10;;;;;;5063701;28;20032;-69
2021/04/05 10:25:20;;;;;;;3.08;1.23;;;23.60;39.30;;;;;;5074688;28;20041;-68
2021/04/05 10:27:48;;;;;;;1.77;1.02;;;23.60;39.50;;;;;;5070985;28;20024;-68
2021/04/05 10:30:15;;;;;;;1.60;1.00;;;23.60;39.60;;;;;;5078710;28;20023;-68
2021/04/05 10:32:42;;;;;;;1.30;0.90;;;23.60;39.70;;;;;;5078742;28;20097;-68
2021/04/05 10:35:12;;;;;;;2.15;1.20;;;23.60;40.10;;;;;;5079651;28;20028;-68
2021/04/05 10:37:47;;;;;;;1.92;1.00;;;23.60;40.10;;;;;;5079628;28;20016;-67
2021/04/05 10:40:17;;;;;;;1.98;0.95;;;23.60;40.10;;;;;;5065197;28;20032;-69
2021/04/05 10:42:54;;;;;;;1.77;0.98;;;23.60;40.00;;;;;;5063636;28;20760;-68
2021/04/05 10:45:22;;;;;;;2.92;1.00;;;23.70;40.00;;;;;;5083812;28;20105;-68
2021/04/05 10:48:17;;;;;;;1.93;1.20;;;23.70;40.40;;;;;;5075343;28;20062;-68
2021/04/05 10:51:19;;;;;;;2.50;1.25;;;23.70;40.60;;;;;;5082176;28;21062;-68
2021/04/05 10:53:51;;;;;;;4.70;1.20;;;23.70;40.50;;;;;;5056598;28;20104;-68
2021/04/05 10:56:19;;;;;;;3.30;1.10;;;23.70;40.60;;;;;;5081275;28;20032;-68
2021/04/05 10:58:58;;;;;;;2.22;1.10;;;23.70;40.60;;;;;;5083010;28;20032;-67
2021/04/05 11:01:24;;;;;;;2.70;1.08;;;23.70;40.60;;;;;;5061166;28;20116;-67
2021/04/05 11:03:52;;;;;;;1.73;1.20;;;23.70;40.60;;;;;;5068778;28;20055;-67
2021/04/05 11:06:21;;;;;;;2.80;1.10;;;23.70;40.60;;;;;;5074151;28;20604;-68
2021/04/05 11:08:50;;;;;;;2.58;1.10;;;23.70;40.60;;;;;;5075809;28;20355;-67
2021/04/05 11:11:29;;;;;;;2.70;1.10;;;23.70;40.60;;;;;;5063181;28;20026;-69
2021/04/05 11:14:00;;;;;;;2.63;1.10;;;23.70;40.60;;;;;;5082694;28;20032;-68
2021/04/05 11:16:26;;;;;;;3.60;1.13;;;23.70;40.60;;;;;;5081532;28;20450;-68
2021/04/05 11:19:04;;;;;;;2.25;1.15;;;23.70;40.60;;;;;;5063313;28;20447;-68
2021/04/05 11:21:40;;;;;;;2.63;1.10;;;23.70;40.50;;;;;;5071886;28;20032;-70
2021/04/05 11:24:08;;;;;;;3.50;1.25;;;23.70;40.50;;;;;;5075443;28;20379;-67
2021/04/05 11:26:36;;;;;;;1.90;0.90;;;23.70;40.50;;;;;;5071299;28;20039;-72
2021/04/05 11:29:13;;;;;;;2.10;1.00;;;23.70;41.00;;;;;;5085369;28;20036;-69
2021/04/05 11:31:44;;;;;;;2.25;1.00;;;23.70;40.60;;;;;;5078786;28;20071;-72
2021/04/05 11:34:10;;;;;;;3.33;1.00;;;23.70;40.60;;;;;;5044925;28;20652;-68
2021/04/05 11:36:51;;;;;;;1.58;0.90;;;23.70;40.60;;;;;;5066468;28;20044;-71
2021/04/05 11:39:19;;;;;;;2.67;1.00;;;23.70;40.50;;;;;;5082608;28;20137;-71
2021/04/05 11:41:54;;;;;;;1.45;0.90;;;23.80;40.60;;;;;;5081964;28;20059;-71
2021/04/05 11:44:23;;;;;;;2.30;0.90;;;23.80;40.50;;;;;;5081329;28;20028;-67
2021/04/05 11:46:52;;;;;;;2.03;1.00;;;23.80;40.50;;;;;;5081893;28;20032;-70
2021/04/05 11:49:18;;;;;;;;;;;23.80;40.50;;;;;;5076233;28;20032;-71
2021/04/05 11:52:01;;;;;;;1.73;0.80;;;23.80;40.60;;;;;;5081660;28;19912;-70
2021/04/05 11:54:51;;;;;;;2.10;0.95;;;23.80;40.60;;;;;;5068775;28;20040;-67
2021/04/05 11:57:44;;;;;;;2.10;0.90;;;23.80;40.50;;;;;;5081731;28;20108;-66
2021/04/05 12:00:18;;;;;;;1.65;0.80;;;23.80;40.50;;;;;;5070835;28;20029;-68
2021/04/05 12:02:53;;;;;;;1.02;0.77;;;23.90;40.60;;;;;;5078446;28;20402;-67
2021/04/05 12:05:30;;;;;;;1.88;0.80;;;23.90;41.10;;;;;;5066216;28;20031;-68
2021/04/05 12:08:02;;;;;;;2.90;1.00;;;23.80;40.50;;;;;;5078618;28;20028;-68
2021/04/05 12:10:30;;;;;;;2.30;0.90;;;23.90;40.50;;;;;;5082389;28;20438;-70
2021/04/05 12:13:03;;;;;;;2.08;1.02;;;23.90;40.50;;;;;;5081444;28;20474;-71
2021/04/05 12:15:30;;;;;;;2.38;0.90;;;23.90;40.50;;;;;;5089476;28;20452;-69
2021/04/05 12:17:58;;;;;;;1.83;0.90;;;23.90;40.40;;;;;;5081875;28;20036;-69
2021/04/05 12:20:25;;;;;;;1.70;0.70;;;23.90;40.40;;;;;;5074611;28;20113;-70
2021/04/05 12:22:53;;;;;;;1.83;0.90;;;23.90;40.30;;;;;;5099198;28;20031;-69
2021/04/05 12:25:32;;;;;;;2.70;1.00;;;23.90;40.30;;;;;;5071324;28;20070;-70
2021/04/05 12:28:04;;;;;;;3.47;1.00;;;23.90;40.30;;;;;;5079675;28;20117;-66
2021/04/05 12:30:32;;;;;;;2.20;0.90;;;23.90;40.30;;;;;;5079145;28;20036;-67
2021/04/05 12:32:59;;;;;;;3.30;0.90;;;23.90;40.30;;;;;;5082591;28;20055;-70
2021/04/05 12:35:27;;;;;;;2.33;0.95;;;23.90;40.30;;;;;;5067752;28;20120;-70
2021/04/05 12:37:54;;;;;;;1.30;0.80;;;23.90;40.20;;;;;;5086378;28;20024;-69
2021/04/05 12:40:24;;;;;;;2.47;0.80;;;23.90;40.10;;;;;;5085864;28;20023;-69
2021/04/05 12:42:52;;;;;;;2.70;0.80;;;23.90;40.60;;;;;;5077483;28;20043;-68
2021/04/05 12:45:20;;;;;;;1.83;0.95;;;23.90;40.20;;;;;;5067250;28;20025;-67
2021/04/05 12:47:50;;;;;;;2.78;1.00;;;23.90;40.10;;;;;;5080885;28;20020;-67
2021/04/05 12:50:21;;;;;;;2.67;0.90;;;23.90;40.00;;;;;;5085702;28;20082;-67
2021/04/05 12:52:49;;;;;;;1.85;0.93;;;23.90;40.00;;;;;;5063223;28;20028;-68
2021/04/05 12:55:19;;;;;;;1.95;0.80;;;23.90;40.00;;;;;;5080071;28;20450;-67
2021/04/05 12:57:45;;;;;;;2.20;0.90;;;23.90;39.90;;;;;;5062611;28;20034;-67
2021/04/05 13:00:14;;;;;;;2.08;0.93;;;23.90;39.90;;;;;;5078105;28;20029;-67
2021/04/05 13:02:44;;;;;;;1.88;0.80;;;24.00;40.00;;;;;;5077553;28;20368;-68
2021/04/05 13:05:15;;;;;;;1.88;0.90;;;24.00;39.90;;;;;;5066842;28;20608;-67
2021/04/05 13:08:02;;;;;;;1.80;0.80;;;24.00;39.90;;;;;;5077498;28;20031;-69
2021/04/05 13:10:37;;;;;;;2.65;0.80;;;24.00;39.90;;;;;;5069711;28;20564;-68
2021/04/05 13:13:09;;;;;;;2.08;0.80;;;24.00;39.80;;;;;;5060320;28;20034;-68
2021/04/05 13:15:36;;;;;;;1.25;0.90;;;23.90;39.70;;;;;;5083962;28;20034;-68
2021/04/05 13:18:23;;;;;;;2.22;0.80;;;24.00;39.70;;;;;;5075129;28;20027;-67
2021/04/05 13:20:54;;;;;;;1.55;0.85;;;24.00;39.70;;;;;;5052265;28;20068;-67
2021/04/05 13:23:25;;;;;;;2.65;1.10;;;24.00;39.70;;;;;;5075343;28;20032;-67
2021/04/05 13:25:59;;;;;;;2.17;0.77;;;24.00;39.70;;;;;;5073412;28;20032;-67
2021/04/05 13:28:28;;;;;;;2.15;0.90;;;23.90;39.60;;;;;;5064574;28;20054;-68